KLWA

Details ICAO KLWA (LWA)
Name SOUTH HAVEN AREA RGNL
Region United States
Timezone America/Detroit (UTC-5.0)
Plans Departing 10
Arriving 3
Stats Elevation 666 ft / 203 m (AMSL)
Location 42.350882° -86.256057°
Runways 2
Magnetic Variation 5.096° W
Sunrise 2017-12-17 13:10:06 UTC / 2017-12-17 08:10:06 Local
Sunset 2017-12-17 22:15:10 UTC / 2017-12-17 17:15:10 Local
Advertisement - Login to hide

Runways

ID Width Length Bearing (true) Bearing (mag) Surface Threshold Offset Overrun Length
04 75 ft / 23 m 4,797 ft / 1,462 m 43.69° 48.79° Asphalt 0 ft / 0 m 0 ft / 0 m
14 190 ft / 58 m 3,270 ft / 997 m 132.27° 137.37° Grass 963 ft / 294 m 0 ft / 0 m
22 75 ft / 23 m 4,797 ft / 1,462 m 223.70° 228.80° Asphalt 500 ft / 152 m 0 ft / 0 m
32 190 ft / 58 m 3,270 ft / 997 m 312.28° 317.38° Grass 762 ft / 232 m 0 ft / 0 m

Map

Weather


0- 5 10 15 20 25 30 35+ Temperature / ° C

Clouds and Precipitation
Forecast for 2017-12-18 00:00 UTC. Updated 9 minutes ago

Ground ~20,000 ft ~40,000 ft Winds

METAR

KLWA 172315Z AUTO 16003KT 7SM CLR 02/M01 A2999 RMK AO2 T00161012

TAF

Not found

Frequencies

Recorded 118.02 MHz AWOS 3
Unicom 122.80 MHz CTAF/UNICOM
Warning: Do not use this data for real-world aviation or navigation. No guarantee of current accuracy is given.